OOCL New York — VRJS2 — position and weather

sailwx.info

Track history (hours):
 
Tides and Currents Weather Stations Pressure Air Temp Water Temp Dewpoint Dewpoint Depression Visibility Wind Speed Wind Dir Waves Ship Positions

OOCL New York

Last reported at 2017-Oct-20 06:07 UTC. Time now 2017-Oct-20 10:56 UTC.
Position N 22°30' E 119°51'.

Length 277 m; draft 10.6 m.

Type: Ship. MMSI: 477274700.

Date/timePositionNaut miles runAvg speedWind from/ knotsBaromVisibWave heightAir tempDewpointWater temp
2017-Oct-20 06:07N 22°30' E 119°51'212.6
2017-Oct-20 05:59N 22°30' E 119°53'612.9
2017-Oct-20 05:30N 22°31' E 119°59'713.4
2017-Oct-20 05:00N 22°32' E 120°07'713.3
2017-Oct-20 04:31N 22°33' E 120°14'5 9.5
2017-Oct-20 04:00N 22°33' E 120°19'1 1.5
2017-Oct-20 03:30N 22°34' E 120°19'1 1.0
2017-Oct-20 02:59N 22°34' E 120°19'0 0.1
2017-Oct-20 02:30N 22°34' E 120°19'0 0.1
2017-Oct-20 02:01N 22°34' E 120°19'0 0.0
2017-Oct-20 01:30N 22°34' E 120°19'0 0.0
2017-Oct-20 01:00N 22°34' E 120°19'0 0.0
2017-Oct-20 00:30N 22°34' E 120°19'0 0.0
2017-Oct-20 00:00N 22°34' E 120°19'0 0.0
2017-Oct-19 23:28N 22°34' E 120°19'0 0.0
2017-Oct-19 22:58N 22°34' E 120°19'0 0.0
2017-Oct-19 22:28N 22°34' E 120°19'0 0.0
2017-Oct-19 21:52N 22°34' E 120°19'0 0.0
2017-Oct-19 21:27N 22°34' E 120°19'0 0.1
2017-Oct-19 20:59N 22°34' E 120°18'0 0.0
2017-Oct-19 18:58N 22°34' E 120°18'0 0.0
2017-Oct-19 16:00N 22°34' E 120°18'1 2.4
2017-Oct-19 15:27N 22°33' E 120°18'2 3.6
2017-Oct-19 15:00N 22°33' E 120°17'2 4.9
2017-Oct-19 14:30N 22°32' E 120°14'3 6.9
2017-Oct-19 14:00N 22°32' E 120°10'0 0.8
2017-Oct-19 13:30N 22°33' E 120°10'1 1.1
2017-Oct-19 13:00N 22°33' E 120°10'1 1.3
2017-Oct-19 12:30N 22°34' E 120°10'1 1.5
2017-Oct-19 12:00N 22°35' E 120°09'3 6.7
2017-Oct-19 11:30N 22°38' E 120°08'4 8.2
2017-Oct-19 11:00N 22°41' E 120°06'3 6.8
2017-Oct-19 10:30N 22°44' E 120°04'1 1.1
2017-Oct-19 10:00N 22°45' E 120°04'1 1.3
2017-Oct-19 09:30N 22°45' E 120°04'1 1.5
2017-Oct-19 09:00N 22°46' E 120°03'1 1.7
2017-Oct-19 08:30N 22°47' E 120°03'1 1.9
2017-Oct-19 08:00N 22°48' E 120°02'2 4.6
2017-Oct-19 07:30N 22°50' E 120°01'510.5
2017-Oct-19 07:00N 22°54' E 119°58'  
Track history (hours):
 
Tides and Currents Weather Stations Pressure Air Temp Water Temp Dewpoint Dewpoint Depression Visibility Wind Speed Wind Dir Waves Ship Positions

OOCL New York

Last reported at 2017-Oct-20 06:07 UTC. Time now 2017-Oct-20 10:56 UTC.
Position N 22°30' E 119°51'.

Length 277 m; draft 10.6 m.

Type: Ship. MMSI: 477274700.

Date/timePositionNaut miles runAvg speedWind from/ knotsBaromVisibWave heightAir tempDewpointWater temp
2017-Oct-20 06:07N 22°30' E 119°51'212.6
2017-Oct-20 05:59N 22°30' E 119°53'612.9
2017-Oct-20 05:30N 22°31' E 119°59'713.4
2017-Oct-20 05:00N 22°32' E 120°07'713.3
2017-Oct-20 04:31N 22°33' E 120°14'5 9.5
2017-Oct-20 04:00N 22°33' E 120°19'1 1.5
2017-Oct-20 03:30N 22°34' E 120°19'1 1.0
2017-Oct-20 02:59N 22°34' E 120°19'0 0.1
2017-Oct-20 02:30N 22°34' E 120°19'0 0.1
2017-Oct-20 02:01N 22°34' E 120°19'0 0.0
2017-Oct-20 01:30N 22°34' E 120°19'0 0.0
2017-Oct-20 01:00N 22°34' E 120°19'0 0.0
2017-Oct-20 00:30N 22°34' E 120°19'0 0.0
2017-Oct-20 00:00N 22°34' E 120°19'0 0.0
2017-Oct-19 23:28N 22°34' E 120°19'0 0.0
2017-Oct-19 22:58N 22°34' E 120°19'0 0.0
2017-Oct-19 22:28N 22°34' E 120°19'0 0.0
2017-Oct-19 21:52N 22°34' E 120°19'0 0.0
2017-Oct-19 21:27N 22°34' E 120°19'0 0.1
2017-Oct-19 20:59N 22°34' E 120°18'0 0.0
2017-Oct-19 18:58N 22°34' E 120°18'0 0.0
2017-Oct-19 16:00N 22°34' E 120°18'1 2.4
2017-Oct-19 15:27N 22°33' E 120°18'2 3.6
2017-Oct-19 15:00N 22°33' E 120°17'2 4.9
2017-Oct-19 14:30N 22°32' E 120°14'3 6.9
2017-Oct-19 14:00N 22°32' E 120°10'0 0.8
2017-Oct-19 13:30N 22°33' E 120°10'1 1.1
2017-Oct-19 13:00N 22°33' E 120°10'1 1.3
2017-Oct-19 12:30N 22°34' E 120°10'1 1.5
2017-Oct-19 12:00N 22°35' E 120°09'3 6.7
2017-Oct-19 11:30N 22°38' E 120°08'4 8.2
2017-Oct-19 11:00N 22°41' E 120°06'3 6.8
2017-Oct-19 10:30N 22°44' E 120°04'1 1.1
2017-Oct-19 10:00N 22°45' E 120°04'1 1.3
2017-Oct-19 09:30N 22°45' E 120°04'1 1.5
2017-Oct-19 09:00N 22°46' E 120°03'1 1.7
2017-Oct-19 08:30N 22°47' E 120°03'1 1.9
2017-Oct-19 08:00N 22°48' E 120°02'2 4.6
2017-Oct-19 07:30N 22°50' E 120°01'510.5
2017-Oct-19 07:00N 22°54' E 119°58'  

Dump ship's entire track history